createdAt,value
2022-12-12T00:01:44.295Z,83.42
2022-12-12T00:04:12.768Z,83.56
2022-12-12T00:06:43.498Z,82.91
2022-12-12T00:09:11.834Z,83.05
2022-12-12T00:11:43.352Z,83.29
2022-12-12T00:14:13.298Z,84.12
2022-12-12T00:16:41.519Z,83.23
2022-12-12T00:19:09.843Z,83.13
2022-12-12T00:21:38.070Z,83.08
2022-12-12T00:24:09.615Z,83.04
2022-12-12T00:26:37.512Z,83.16
2022-12-12T00:29:06.455Z,82.94
2022-12-12T00:31:35.046Z,82.95
2022-12-12T00:34:03.331Z,82.81
2022-12-12T00:36:33.229Z,82.68
2022-12-12T00:39:02.223Z,82.83
2022-12-12T00:41:30.691Z,83.17
2022-12-12T00:43:59.041Z,83.23
2022-12-12T00:46:27.930Z,83.38
2022-12-12T00:48:57.813Z,83.71
2022-12-12T00:51:28.997Z,83.29
2022-12-12T00:53:58.798Z,83.41
2022-12-12T00:56:29.401Z,83.73
2022-12-12T00:58:57.693Z,83.56
2022-12-12T01:01:32.181Z,83.29
2022-12-12T01:04:01.833Z,82.83
2022-12-12T01:06:33.496Z,82.58
2022-12-12T01:09:01.794Z,81.97
2022-12-12T01:11:32.492Z,82.05
2022-12-12T01:14:00.748Z,82.55
2022-12-12T01:16:29.154Z,83.70
2022-12-12T01:18:57.842Z,84.11
2022-12-12T01:21:28.510Z,84.04
2022-12-12T01:23:56.724Z,84.57
2022-12-12T01:26:25.751Z,83.54
2022-12-12T01:28:54.545Z,83.46
2022-12-12T01:31:25.754Z,83.99
2022-12-12T01:33:54.119Z,83.91
2022-12-12T01:36:24.652Z,84.47
2022-12-12T01:38:55.656Z,83.87
2022-12-12T01:41:24.501Z,83.40
2022-12-12T01:43:53.190Z,83.81
2022-12-12T01:46:26.880Z,83.25
2022-12-12T01:49:00.259Z,83.28
2022-12-12T01:51:29.398Z,83.01
2022-12-12T01:54:08.751Z,82.91
2022-12-12T01:56:39.376Z,82.88
2022-12-12T01:59:12.356Z,82.61
2022-12-12T02:01:42.209Z,83.15
2022-12-12T02:04:12.163Z,82.83
2022-12-12T02:06:42.290Z,83.27
2022-12-12T02:09:14.738Z,83.01
2022-12-12T02:11:57.891Z,83.70
2022-12-12T02:14:34.595Z,83.26
2022-12-12T02:17:49.047Z,83.98
2022-12-12T02:20:19.965Z,84.13
2022-12-12T02:23:21.254Z,84.66
2022-12-12T02:26:07.664Z,84.48
2022-12-12T02:29:09.702Z,84.10
2022-12-12T02:32:15.243Z,83.76
2022-12-12T02:35:06.690Z,84.60
2022-12-12T02:37:44.618Z,84.72
2022-12-12T02:40:22.003Z,84.51
2022-12-12T02:42:59.751Z,84.37
2022-12-12T02:45:51.465Z,84.24
2022-12-12T02:48:34.649Z,85.24
2022-12-12T02:51:06.680Z,85.08
2022-12-12T02:53:34.994Z,84.73
2022-12-12T02:56:09.554Z,85.02
2022-12-12T02:58:39.697Z,85.11
2022-12-12T03:01:12.111Z,85.78
2022-12-12T03:04:26.767Z,86.50
2022-12-12T03:07:50.965Z,85.47
2022-12-12T03:10:43.919Z,86.12
2022-12-12T03:13:23.940Z,86.00
2022-12-12T03:16:17.740Z,86.22
2022-12-12T03:19:01.027Z,86.10
2022-12-12T03:21:47.386Z,85.87
2022-12-12T03:24:49.935Z,86.04
2022-12-12T03:28:06.963Z,86.08
2022-12-12T03:30:44.257Z,86.20
2022-12-12T03:33:28.583Z,86.25
2022-12-12T03:36:04.563Z,86.13
2022-12-12T03:38:37.970Z,86.62
2022-12-12T03:41:12.945Z,86.25
2022-12-12T03:43:48.599Z,86.10
2022-12-12T03:46:22.317Z,86.53
2022-12-12T03:49:15.038Z,86.39
2022-12-12T03:51:55.836Z,86.83
2022-12-12T03:54:38.583Z,86.54
2022-12-12T03:57:33.877Z,86.72
2022-12-12T04:00:14.679Z,86.96
2022-12-12T04:02:52.788Z,86.69
2022-12-12T04:05:22.967Z,86.52
2022-12-12T04:08:12.537Z,86.61
2022-12-12T04:11:11.838Z,86.07
2022-12-12T04:14:16.819Z,86.67
2022-12-12T04:16:48.081Z,87.06
2022-12-12T04:19:51.576Z,88.48
2022-12-12T04:22:44.398Z,88.93
2022-12-12T04:25:33.780Z,89.02
2022-12-12T04:28:09.148Z,88.89
2022-12-12T04:30:38.776Z,88.38
2022-12-12T04:33:14.678Z,88.39
2022-12-12T04:35:47.537Z,88.52
2022-12-12T04:38:24.584Z,88.63
2022-12-12T04:41:01.001Z,88.62
2022-12-12T04:43:36.816Z,88.25
2022-12-12T04:46:28.761Z,87.28
2022-12-12T04:49:22.808Z,87.10
2022-12-12T04:51:55.812Z,87.21
2022-12-12T04:54:51.642Z,86.87
2022-12-12T04:57:28.681Z,87.17
2022-12-12T04:59:57.523Z,87.33
2022-12-12T05:02:45.106Z,87.70
2022-12-12T05:05:23.688Z,88.08
2022-12-12T05:07:57.700Z,89.43
2022-12-12T05:10:26.181Z,90.36
2022-12-12T05:12:59.694Z,91.40
2022-12-12T05:15:30.279Z,91.97
2022-12-12T05:18:11.847Z,92.94
2022-12-12T05:20:42.851Z,93.45
2022-12-12T05:23:11.103Z,93.53
2022-12-12T05:25:39.358Z,93.05
2022-12-12T05:28:07.663Z,92.91
2022-12-12T05:30:36.112Z,91.93
2022-12-12T05:33:04.619Z,91.96
2022-12-12T05:35:34.764Z,91.40
2022-12-12T05:38:03.505Z,91.09
2022-12-12T05:40:31.720Z,90.98
2022-12-12T05:43:00.124Z,91.61
2022-12-12T05:45:28.416Z,91.99
2022-12-12T05:47:56.572Z,91.90
2022-12-12T05:50:24.951Z,92.33
2022-12-12T05:52:53.256Z,91.92
2022-12-12T05:55:21.490Z,91.85
2022-12-12T05:57:49.725Z,92.32
2022-12-12T06:00:18.089Z,91.94
2022-12-12T06:02:46.662Z,92.39
2022-12-12T06:05:15.585Z,91.65
2022-12-12T06:07:44.203Z,92.02
2022-12-12T06:10:13.101Z,92.31
2022-12-12T06:12:41.472Z,92.33
2022-12-12T06:15:10.769Z,93.05
2022-12-12T06:17:39.296Z,93.30
2022-12-12T06:20:08.748Z,93.42
2022-12-12T06:22:37.785Z,93.72
2022-12-12T06:25:06.519Z,93.87
2022-12-12T06:27:34.859Z,94.10
2022-12-12T06:30:03.037Z,94.47
2022-12-12T06:32:34.652Z,94.78
2022-12-12T06:35:02.476Z,96.03
2022-12-12T06:37:31.321Z,94.97
2022-12-12T06:39:59.586Z,94.45
2022-12-12T06:42:30.720Z,94.45
2022-12-12T06:44:59.004Z,94.47
2022-12-12T06:47:27.351Z,94.10
2022-12-12T06:49:55.525Z,94.13
2022-12-12T06:52:23.960Z,94.02
2022-12-12T06:54:52.453Z,94.21
2022-12-12T06:57:20.703Z,94.08
2022-12-12T06:59:52.225Z,94.18
2022-12-12T07:02:25.910Z,95.18
2022-12-12T07:04:57.580Z,94.78
2022-12-12T07:07:28.511Z,94.93
2022-12-12T07:09:56.715Z,95.12
2022-12-12T07:12:28.458Z,94.85
2022-12-12T07:14:56.789Z,94.85
2022-12-12T07:17:25.121Z,94.25
2022-12-12T07:19:53.330Z,95.17
2022-12-12T07:22:23.913Z,95.37
2022-12-12T07:24:53.558Z,95.16
2022-12-12T07:27:27.370Z,95.25
2022-12-12T07:29:55.603Z,95.36
2022-12-12T07:32:23.815Z,95.27
2022-12-12T07:34:51.984Z,95.53
2022-12-12T07:37:20.389Z,95.65
2022-12-12T07:39:48.582Z,95.56
2022-12-12T07:42:16.775Z,95.85
2022-12-12T07:44:45.474Z,95.71
2022-12-12T07:47:13.709Z,95.98
2022-12-12T07:49:42.064Z,95.00
2022-12-12T07:52:10.660Z,95.00
2022-12-12T07:54:38.936Z,95.17
2022-12-12T07:57:07.313Z,94.85
2022-12-12T07:59:35.888Z,94.24
2022-12-12T08:02:04.363Z,92.92
2022-12-12T08:04:36.000Z,91.89
2022-12-12T08:07:08.472Z,92.05
2022-12-12T08:09:38.242Z,90.42
2022-12-12T08:12:06.728Z,89.64
2022-12-12T08:14:38.337Z,89.02
2022-12-12T08:17:06.222Z,87.67
2022-12-12T08:19:34.876Z,87.86
2022-12-12T08:22:03.176Z,87.59
2022-12-12T08:24:31.740Z,87.61
2022-12-12T08:26:59.982Z,87.05
2022-12-12T08:29:28.816Z,87.20
2022-12-12T08:31:57.052Z,86.84
2022-12-12T08:34:25.463Z,86.66
2022-12-12T08:36:55.798Z,87.00
2022-12-12T08:39:24.285Z,86.69
2022-12-12T08:41:52.654Z,87.08
2022-12-12T08:44:22.079Z,86.89
2022-12-12T08:46:50.876Z,86.97
2022-12-12T08:49:19.228Z,87.27
2022-12-12T08:51:47.479Z,86.74
2022-12-12T08:54:15.859Z,86.38
2022-12-12T08:56:44.112Z,86.58
2022-12-12T08:59:12.474Z,86.40
2022-12-12T09:01:41.733Z,86.98
2022-12-12T09:04:10.059Z,86.40
2022-12-12T09:06:38.345Z,86.25
2022-12-12T09:09:06.672Z,85.86
2022-12-12T09:11:34.897Z,85.61
2022-12-12T09:14:03.130Z,85.57
2022-12-12T09:16:34.511Z,85.86
2022-12-12T09:19:03.026Z,85.59
2022-12-12T09:21:31.212Z,85.84
2022-12-12T09:23:59.785Z,86.12
2022-12-12T09:26:28.189Z,86.28
2022-12-12T09:28:56.537Z,86.30
2022-12-12T09:31:24.857Z,86.63
2022-12-12T09:33:53.307Z,86.72
2022-12-12T09:36:22.440Z,86.70
2022-12-12T09:38:50.671Z,86.70
2022-12-12T09:41:23.351Z,86.72
2022-12-12T09:44:19.434Z,87.00
2022-12-12T09:46:58.229Z,87.75
2022-12-12T09:49:50.068Z,88.16
2022-12-12T09:52:31.102Z,90.06
2022-12-12T09:55:07.571Z,88.56
2022-12-12T09:57:50.889Z,88.95
2022-12-12T10:00:20.632Z,88.93
2022-12-12T10:03:10.018Z,89.29
2022-12-12T10:06:36.585Z,89.52
2022-12-12T10:09:32.807Z,89.56
2022-12-12T10:12:07.894Z,88.94
2022-12-12T10:14:36.728Z,89.34
2022-12-12T10:20:51.926Z,89.53
2022-12-12T10:23:36.308Z,89.22
2022-12-12T10:26:08.734Z,88.57
2022-12-12T10:28:37.263Z,88.75
2022-12-12T10:31:37.628Z,88.78
2022-12-12T10:34:32.956Z,88.96
2022-12-12T10:37:29.305Z,88.89
2022-12-12T10:40:15.345Z,89.05
2022-12-12T10:42:53.282Z,88.80
2022-12-12T10:46:03.494Z,88.61
2022-12-12T10:48:32.926Z,88.45
2022-12-12T10:51:07.131Z,88.46
2022-12-12T10:53:36.291Z,88.35
2022-12-12T10:56:13.950Z,88.76
2022-12-12T10:58:44.833Z,88.59
2022-12-12T11:01:33.071Z,88.67
2022-12-12T11:04:13.716Z,88.41
2022-12-12T11:06:51.016Z,88.67
2022-12-12T11:09:21.299Z,88.89
2022-12-12T11:12:13.728Z,88.63
2022-12-12T11:14:48.842Z,88.72
2022-12-12T11:17:32.188Z,89.25
2022-12-12T11:20:02.756Z,88.72
2022-12-12T11:22:34.270Z,89.35
2022-12-12T11:25:04.894Z,90.42
2022-12-12T11:27:40.815Z,89.00
2022-12-12T11:30:25.554Z,89.08
2022-12-12T11:32:56.502Z,88.83
2022-12-12T11:35:29.942Z,88.25
2022-12-12T11:38:06.294Z,88.09
2022-12-12T11:40:37.915Z,88.16
2022-12-12T11:43:26.154Z,89.18
2022-12-12T11:46:17.437Z,88.51
2022-12-12T11:48:58.717Z,88.53
2022-12-12T11:51:45.193Z,88.68
2022-12-12T11:54:24.872Z,87.90
2022-12-12T11:57:19.024Z,88.23
2022-12-12T12:00:05.691Z,87.62
2022-12-12T12:02:55.269Z,87.59
2022-12-12T12:05:29.808Z,88.05
2022-12-12T12:08:05.720Z,87.79
2022-12-12T12:10:34.021Z,87.16
2022-12-12T12:13:17.635Z,87.21
2022-12-12T12:15:54.376Z,86.74
2022-12-12T12:18:45.301Z,87.90
2022-12-12T12:21:30.811Z,87.63
2022-12-12T12:24:19.965Z,87.98
2022-12-12T12:26:57.266Z,87.35
2022-12-12T12:30:02.647Z,88.24
2022-12-12T12:32:48.867Z,88.01
2022-12-12T12:35:32.764Z,87.85
2022-12-12T12:38:24.989Z,88.39
2022-12-12T12:41:27.567Z,87.75
2022-12-12T12:44:37.665Z,88.01
2022-12-12T12:47:29.061Z,88.19
2022-12-12T12:50:04.952Z,88.36
2022-12-12T12:52:44.280Z,87.97
2022-12-12T12:55:25.914Z,87.52
2022-12-12T12:57:54.617Z,87.73
2022-12-12T13:00:31.562Z,88.02
2022-12-12T13:03:18.496Z,87.81
2022-12-12T13:05:53.546Z,87.76
2022-12-12T13:08:46.253Z,86.61
2022-12-12T13:11:40.719Z,87.24
2022-12-12T13:14:44.077Z,87.85
2022-12-12T13:17:20.389Z,87.54
2022-12-12T13:19:52.419Z,87.76
2022-12-12T13:22:31.770Z,87.50
2022-12-12T13:25:28.936Z,87.09
2022-12-12T13:28:05.834Z,86.00
2022-12-12T13:30:58.431Z,85.37
2022-12-12T13:33:44.509Z,85.66
2022-12-12T13:36:30.279Z,84.81
2022-12-12T13:39:04.223Z,84.47
2022-12-12T13:42:04.536Z,83.06
2022-12-12T13:44:38.200Z,83.41
2022-12-12T13:47:18.797Z,82.61
2022-12-12T13:50:07.803Z,82.57
2022-12-12T13:52:41.900Z,82.74
2022-12-12T13:55:18.820Z,83.25
2022-12-12T13:58:07.449Z,83.39
2022-12-12T14:00:39.973Z,83.29
2022-12-12T14:03:14.032Z,83.09
2022-12-12T14:05:45.627Z,83.01
2022-12-12T14:08:14.467Z,83.44
2022-12-12T14:10:54.709Z,82.41
2022-12-12T14:13:22.909Z,81.92
2022-12-12T14:16:02.879Z,82.26
2022-12-12T14:18:57.111Z,82.46
2022-12-12T14:21:40.800Z,82.25
2022-12-12T14:24:33.635Z,81.60
2022-12-12T14:27:09.003Z,82.11
2022-12-12T14:29:44.953Z,82.60
2022-12-12T14:32:13.100Z,82.77
2022-12-12T14:34:53.570Z,83.14
2022-12-12T14:37:42.997Z,83.28
2022-12-12T14:40:22.347Z,83.41
2022-12-12T14:43:19.034Z,83.53
2022-12-12T14:45:56.660Z,83.31
2022-12-12T14:48:33.400Z,82.87
2022-12-12T14:51:12.195Z,82.80
2022-12-12T14:53:40.818Z,82.42
2022-12-12T14:56:11.037Z,82.14
2022-12-12T14:58:57.532Z,81.51
2022-12-12T15:01:39.475Z,81.50
2022-12-12T15:04:12.399Z,81.90
2022-12-12T15:06:46.194Z,82.08
2022-12-12T15:09:38.500Z,82.35
2022-12-12T15:12:09.450Z,81.63
2022-12-12T15:14:52.743Z,81.47
2022-12-12T15:17:40.170Z,81.15
2022-12-12T15:20:16.711Z,80.92
2022-12-12T15:22:57.337Z,81.41
2022-12-12T15:25:38.807Z,81.44
2022-12-12T15:28:07.201Z,81.68
2022-12-12T15:30:43.459Z,81.72
2022-12-12T15:33:25.440Z,81.98
2022-12-12T15:36:11.279Z,81.92
2022-12-12T15:38:40.167Z,81.84
2022-12-12T15:41:13.608Z,81.98
2022-12-12T15:43:44.006Z,82.02
2022-12-12T15:46:16.199Z,81.71
2022-12-12T15:48:48.954Z,82.11
2022-12-12T15:51:24.638Z,82.04
2022-12-12T15:53:56.246Z,82.25
2022-12-12T15:56:29.925Z,82.63
2022-12-12T15:59:16.045Z,82.30
2022-12-12T16:01:44.864Z,83.43
2022-12-12T16:04:13.051Z,83.54
2022-12-12T16:06:47.231Z,83.96
2022-12-12T16:09:24.796Z,84.03
2022-12-12T16:11:57.864Z,84.18
2022-12-12T16:14:38.993Z,84.12
2022-12-12T16:17:11.384Z,84.19
2022-12-12T16:20:00.960Z,83.84
2022-12-12T16:22:41.324Z,84.46
2022-12-12T16:25:24.977Z,84.25
2022-12-12T16:28:24.801Z,84.41
2022-12-12T16:31:05.928Z,84.60
2022-12-12T16:33:38.110Z,85.04
2022-12-12T16:36:09.436Z,84.89
2022-12-12T16:38:42.042Z,86.34
2022-12-12T16:41:17.864Z,87.33
2022-12-12T16:43:46.316Z,85.18
2022-12-12T16:46:23.888Z,86.20
2022-12-12T16:48:57.195Z,85.82
2022-12-12T16:51:34.887Z,85.47
2022-12-12T16:54:09.197Z,84.25
2022-12-12T16:56:37.454Z,82.27
2022-12-12T16:59:05.856Z,80.48
2022-12-12T17:01:48.591Z,80.48
2022-12-12T17:04:27.941Z,82.02
2022-12-12T17:07:12.608Z,78.48
2022-12-12T17:10:07.822Z,76.25
2022-12-12T17:12:45.056Z,76.06
2022-12-12T17:15:32.765Z,74.03
2022-12-12T17:18:06.824Z,73.85
2022-12-12T17:20:55.551Z,72.66
2022-12-12T17:26:38.823Z,72.47
2022-12-12T17:29:08.946Z,73.28
2022-12-12T17:31:37.646Z,71.49
2022-12-12T17:34:06.825Z,71.43
2022-12-12T17:36:41.035Z,71.08
2022-12-12T17:39:09.452Z,69.58
2022-12-12T17:41:37.873Z,72.03
2022-12-12T17:44:06.411Z,70.39
2022-12-12T17:46:34.766Z,70.49
2022-12-12T17:49:05.590Z,67.36
2022-12-12T17:51:38.331Z,70.53
2022-12-12T17:54:06.700Z,67.43
2022-12-12T17:56:35.110Z,66.24
2022-12-12T17:59:09.379Z,69.28
2022-12-12T18:01:37.927Z,64.44
2022-12-12T18:04:06.862Z,63.98
2022-12-12T18:06:38.833Z,62.58
2022-12-12T18:09:07.087Z,63.17
2022-12-12T18:11:36.475Z,66.06
2022-12-12T18:14:06.596Z,67.35
2022-12-12T18:16:36.773Z,62.99
2022-12-12T18:19:05.748Z,61.72
2022-12-12T18:22:00.366Z,61.20
2022-12-12T18:24:37.279Z,60.98
2022-12-12T18:27:08.692Z,60.39
2022-12-12T18:29:37.248Z,62.18
2022-12-12T18:32:06.129Z,61.89
2022-12-12T18:34:37.593Z,60.86
2022-12-12T18:37:06.270Z,57.24
2022-12-12T18:39:37.253Z,55.96
2022-12-12T18:42:08.474Z,54.83
2022-12-12T18:44:38.043Z,54.13
2022-12-12T18:47:06.352Z,55.86
2022-12-12T18:49:34.780Z,56.89
2022-12-12T18:52:05.760Z,58.85
2022-12-12T18:54:37.431Z,59.19
2022-12-12T18:57:05.669Z,58.16
2022-12-12T18:59:34.015Z,59.05
2022-12-12T19:02:02.350Z,59.47
2022-12-12T19:04:30.741Z,57.15
2022-12-12T19:06:59.636Z,56.62
2022-12-12T19:09:27.854Z,55.69
2022-12-12T19:12:02.324Z,55.35
2022-12-12T19:14:45.828Z,58.17
2022-12-12T19:17:14.423Z,56.59
2022-12-12T19:19:42.883Z,57.07
2022-12-12T19:22:39.993Z,54.76
2022-12-12T19:24:59.446Z,56.22
2022-12-12T19:27:32.257Z,55.52
2022-12-12T19:30:00.534Z,57.39
2022-12-12T19:32:28.917Z,52.03
2022-12-12T19:34:57.244Z,51.07
2022-12-12T19:37:29.001Z,53.18
2022-12-12T19:40:00.943Z,54.23
2022-12-12T19:42:30.172Z,50.61
2022-12-12T19:45:06.339Z,49.01
2022-12-12T19:47:40.949Z,49.76
2022-12-12T19:50:09.559Z,51.21
2022-12-12T19:52:37.770Z,51.71
2022-12-12T19:55:06.428Z,53.53
2022-12-12T19:57:37.246Z,50.24
2022-12-12T20:00:06.541Z,51.74
2022-12-12T20:02:38.090Z,50.87
2022-12-12T20:05:06.753Z,50.07
2022-12-12T20:07:38.024Z,50.52
2022-12-12T20:10:06.353Z,51.15
2022-12-12T20:12:37.697Z,52.22
2022-12-12T20:15:09.668Z,55.59
2022-12-12T20:17:37.967Z,54.84
2022-12-12T20:20:06.699Z,53.89
2022-12-12T20:22:37.788Z,52.16
2022-12-12T20:25:06.419Z,52.14
2022-12-12T20:27:34.969Z,53.26
2022-12-12T20:30:04.443Z,53.46
2022-12-12T20:32:33.128Z,53.27
2022-12-12T20:35:01.860Z,53.35
2022-12-12T20:37:32.419Z,54.49
2022-12-12T20:40:04.901Z,56.39
2022-12-12T20:42:42.437Z,54.65
2022-12-12T20:45:17.296Z,55.32
2022-12-12T20:47:46.856Z,55.50
2022-12-12T20:50:15.488Z,55.34
2022-12-12T20:52:43.762Z,56.76
2022-12-12T20:55:17.635Z,57.97
2022-12-12T20:57:45.885Z,58.30
2022-12-12T21:00:14.952Z,58.42
2022-12-12T21:02:43.500Z,59.61
2022-12-12T21:05:18.073Z,60.34
2022-12-12T21:07:46.449Z,60.86
2022-12-12T21:10:36.931Z,59.92
2022-12-12T21:13:08.096Z,60.15
2022-12-12T21:15:39.391Z,59.69
2022-12-12T21:18:07.293Z,59.92
2022-12-12T21:20:35.792Z,60.27
2022-12-12T21:23:04.533Z,60.26
2022-12-12T21:25:32.982Z,59.47
2022-12-12T21:28:01.558Z,59.36
2022-12-12T21:30:35.669Z,59.74
2022-12-12T21:33:06.968Z,60.40
2022-12-12T21:35:36.461Z,60.74
2022-12-12T21:38:05.476Z,61.14
2022-12-12T21:40:37.885Z,61.53
2022-12-12T21:43:06.206Z,61.54
2022-12-12T21:45:39.105Z,61.28
2022-12-12T21:48:08.168Z,62.12
2022-12-12T21:50:38.310Z,61.91
2022-12-12T21:58:20.934Z,62.63
2022-12-12T22:01:40.488Z,62.55
2022-12-12T22:09:17.033Z,62.40
2022-12-12T22:14:38.571Z,62.58
2022-12-12T22:17:07.075Z,63.52
2022-12-12T22:19:35.719Z,64.02
2022-12-12T22:22:04.470Z,64.28
2022-12-12T22:24:33.364Z,64.30
2022-12-12T22:27:09.024Z,64.93
2022-12-12T23:27:06.152Z,57.45
2022-12-12T23:37:19.006Z,61.50
2022-12-12T23:59:14.027Z,59.01
